Time,TemperatureF,DewpointF,PressureIn,WindDirection,WindDirectionDegrees,WindSpeedMPH,WindSpeedGustMPH,Humidity,HourlyPrecipIn,Conditions,Clouds,dailyrainin,SoftwareType,DateUTC
2013-08-23 00:11:00,78.6,68.0,29.93,SSW,198,1.0,3.0,70,0.00,,,0.00,weatherlink.com 1.10,2013-08-23 05:11:00,
2013-08-23 00:26:00,78.4,68.0,29.93,SSE,167,0.0,2.0,71,0.00,,,0.00,weatherlink.com 1.10,2013-08-23 05:26:00,
2013-08-23 00:41:00,78.0,68.0,29.92,SSW,204,0.0,1.0,72,0.00,,,0.00,weatherlink.com 1.10,2013-08-23 05:41:00,
2013-08-23 00:56:00,77.3,68.0,29.92,SW,214,0.0,0.0,73,0.00,,,0.00,weatherlink.com 1.10,2013-08-23 05:56:00,
2013-08-23 01:11:00,76.0,68.0,29.92,SW,214,0.0,0.0,75,0.00,,,0.00,weatherlink.com 1.10,2013-08-23 06:11:00,
2013-08-23 01:26:00,74.6,67.0,29.93,SW,214,0.0,0.0,78,0.00,,,0.00,weatherlink.com 1.10,2013-08-23 06:26:00,
2013-08-23 01:41:00,74.1,67.0,29.93,SW,214,0.0,0.0,79,0.00,,,0.00,weatherlink.com 1.10,2013-08-23 06:41:00,
2013-08-23 01:56:00,73.2,66.0,29.93,SW,214,0.0,0.0,79,0.00,,,0.00,weatherlink.com 1.10,2013-08-23 06:56:00,
2013-08-23 02:11:00,72.6,67.0,29.93,SW,214,0.0,0.0,81,0.00,,,0.00,weatherlink.com 1.10,2013-08-23 07:11:00,
2013-08-23 02:26:00,72.3,66.0,29.93,SW,214,0.0,1.0,81,0.00,,,0.00,weatherlink.com 1.10,2013-08-23 07:26:00,
2013-08-23 02:41:00,72.4,66.0,29.93,SSW,203,0.0,0.0,81,0.00,,,0.00,weatherlink.com 1.10,2013-08-23 07:41:00,
2013-08-23 02:56:00,72.3,66.0,29.92,SSW,204,0.0,0.0,81,0.00,,,0.00,weatherlink.com 1.10,2013-08-23 07:56:00,
2013-08-23 03:11:00,71.5,66.0,29.92,SSW,204,0.0,0.0,83,0.00,,,0.00,weatherlink.com 1.10,2013-08-23 08:11:00,
2013-08-23 03:26:00,71.1,66.0,29.92,SSW,204,0.0,0.0,84,0.00,,,0.00,weatherlink.com 1.10,2013-08-23 08:26:00,
2013-08-23 03:41:00,70.6,66.0,29.92,SSW,204,0.0,0.0,84,0.00,,,0.00,weatherlink.com 1.10,2013-08-23 08:41:00,
2013-08-23 03:56:00,70.2,66.0,29.92,SSW,204,0.0,1.0,85,0.00,,,0.00,weatherlink.com 1.10,2013-08-23 08:56:00,
2013-08-23 04:11:00,69.8,66.0,29.92,SSW,204,0.0,0.0,86,0.00,,,0.00,weatherlink.com 1.10,2013-08-23 09:11:00,
2013-08-23 04:26:00,69.6,65.0,29.91,SSW,204,0.0,1.0,86,0.00,,,0.00,weatherlink.com 1.10,2013-08-23 09:26:00,
2013-08-23 04:41:00,69.3,65.0,29.92,SSW,204,0.0,0.0,87,0.00,,,0.00,weatherlink.com 1.10,2013-08-23 09:41:00,
2013-08-23 04:56:00,68.8,65.0,29.91,SSW,204,0.0,0.0,86,0.00,,,0.00,weatherlink.com 1.10,2013-08-23 09:56:00,
2013-08-23 05:11:00,68.8,65.0,29.91,SSW,203,0.0,0.0,88,0.00,,,0.00,weatherlink.com 1.10,2013-08-23 10:11:00,
2013-08-23 05:26:00,68.6,65.0,29.91,SSW,204,0.0,0.0,89,0.00,,,0.00,weatherlink.com 1.10,2013-08-23 10:26:00,
2013-08-23 05:41:00,68.2,65.0,29.91,SSW,203,0.0,0.0,89,0.00,,,0.00,weatherlink.com 1.10,2013-08-23 10:41:00,
2013-08-23 05:56:00,67.9,65.0,29.91,SSW,204,0.0,0.0,89,0.00,,,0.00,weatherlink.com 1.10,2013-08-23 10:56:00,
2013-08-23 06:11:00,67.8,65.0,29.92,SSW,204,0.0,0.0,89,0.00,,,0.00,weatherlink.com 1.10,2013-08-23 11:11:00,
2013-08-23 06:26:00,67.7,64.0,29.92,SSW,204,0.0,0.0,89,0.00,,,0.00,weatherlink.com 1.10,2013-08-23 11:26:00,
2013-08-23 06:41:00,67.5,65.0,29.93,SSW,204,0.0,1.0,91,0.00,,,0.00,weatherlink.com 1.10,2013-08-23 11:41:00,
2013-08-23 06:56:00,67.3,65.0,29.93,SSW,204,0.0,0.0,91,0.00,,,0.00,weatherlink.com 1.10,2013-08-23 11:56:00,
2013-08-23 07:11:00,67.3,65.0,29.93,SSW,204,0.0,1.0,91,0.00,,,0.00,weatherlink.com 1.10,2013-08-23 12:11:00,
2013-08-23 07:26:00,67.2,64.0,29.94,SSW,203,0.0,0.0,90,0.00,,,0.00,weatherlink.com 1.10,2013-08-23 12:26:00,
2013-08-23 07:42:00,68.6,66.0,29.94,SSW,204,0.0,1.0,90,0.00,,,0.00,weatherlink.com 1.10,2013-08-23 12:42:00,
2013-08-23 07:56:00,71.8,68.0,29.94,SSW,204,0.0,0.0,86,0.00,,,0.00,weatherlink.com 1.10,2013-08-23 12:56:00,
2013-08-23 08:11:00,74.2,69.0,29.95,SSW,204,0.0,0.0,84,0.00,,,0.00,weatherlink.com 1.10,2013-08-23 13:11:00,
2013-08-23 08:26:00,79.4,71.0,29.95,SSW,204,0.0,0.0,75,0.00,,,0.00,weatherlink.com 1.10,2013-08-23 13:26:00,
2013-08-23 08:42:00,79.6,70.0,29.96,NE,47,0.0,1.0,73,0.00,,,0.00,weatherlink.com 1.10,2013-08-23 13:42:00,
2013-08-23 08:57:00,80.7,72.0,29.96,SW,229,3.0,3.0,74,0.00,,,0.00,weatherlink.com 1.10,2013-08-23 13:57:00,
2013-08-23 09:12:00,81.2,72.0,29.95,SW,229,0.0,4.0,74,0.00,,,0.00,weatherlink.com 1.10,2013-08-23 14:12:00,
2013-08-23 09:27:00,82.2,72.0,29.95,WSW,252,0.0,2.0,72,0.00,,,0.00,weatherlink.com 1.10,2013-08-23 14:27:00,
2013-08-23 09:42:00,83.5,72.0,29.95,WSW,240,0.0,1.0,68,0.00,,,0.00,weatherlink.com 1.10,2013-08-23 14:42:00,
2013-08-23 09:57:00,82.4,69.0,29.95,SW,229,0.0,1.0,63,0.00,,,0.00,weatherlink.com 1.10,2013-08-23 14:57:00,
2013-08-23 10:12:00,84.6,72.0,29.95,SW,221,0.0,39.0,67,0.00,,,0.00,weatherlink.com 1.10,2013-08-23 15:12:00,
2013-08-23 10:27:00,85.5,70.0,29.95,SSW,204,0.0,1.0,60,0.00,,,0.00,weatherlink.com 1.10,2013-08-23 15:27:00,
2013-08-23 10:42:00,84.7,70.0,29.95,NE,46,0.0,1.0,62,0.00,,,0.00,weatherlink.com 1.10,2013-08-23 15:42:00,
2013-08-23 10:57:00,87.9,70.0,29.95,SW,232,0.0,1.0,56,0.00,,,0.00,weatherlink.com 1.10,2013-08-23 15:57:00,
2013-08-23 11:12:00,87.2,69.0,29.95,South,184,0.0,0.0,55,0.00,,,0.00,weatherlink.com 1.10,2013-08-23 16:12:00,
2013-08-23 11:27:00,87.6,66.0,29.95,SSE,149,0.0,0.0,48,0.00,,,0.00,weatherlink.com 1.10,2013-08-23 16:27:00,
2013-08-23 11:42:00,88.1,68.0,29.95,WSW,256,0.0,0.0,51,0.00,,,0.00,weatherlink.com 1.10,2013-08-23 16:42:00,
2013-08-23 11:57:00,87.9,67.0,29.94,NNE,29,0.0,0.0,50,0.00,,,0.00,weatherlink.com 1.10,2013-08-23 16:57:00,
2013-08-23 12:12:00,89.4,67.0,29.94,NNE,29,0.0,0.0,47,0.00,,,0.00,weatherlink.com 1.10,2013-08-23 17:12:00,
2013-08-23 12:27:00,91.0,67.0,29.94,SE,133,0.0,0.0,45,0.00,,,0.00,weatherlink.com 1.10,2013-08-23 17:27:00,
2013-08-23 12:42:00,91.5,67.0,29.94,South,174,0.0,0.0,45,0.00,,,0.00,weatherlink.com 1.10,2013-08-23 17:42:00,
2013-08-23 12:57:00,91.9,66.0,29.93,South,174,0.0,0.0,42,0.00,,,0.00,weatherlink.com 1.10,2013-08-23 17:57:00,
2013-08-23 13:12:00,91.2,65.0,29.93,SSW,198,0.0,0.0,42,0.00,,,0.00,weatherlink.com 1.10,2013-08-23 18:12:00,
2013-08-23 13:27:00,92.1,66.0,29.92,SSW,203,0.0,0.0,42,0.00,,,0.00,weatherlink.com 1.10,2013-08-23 18:27:00,
2013-08-23 13:42:00,92.9,65.0,29.91,SSW,196,0.0,0.0,40,0.00,,,0.00,weatherlink.com 1.10,2013-08-23 18:42:00,
2013-08-23 13:57:00,92.0,65.0,29.90,NE,47,0.0,0.0,41,0.00,,,0.00,weatherlink.com 1.10,2013-08-23 18:57:00,
2013-08-23 14:27:00,94.9,64.0,29.89,SW,229,0.0,0.0,36,0.00,,,0.00,weatherlink.com 1.10,2013-08-23 19:27:00,
2013-08-23 14:42:00,93.8,65.0,29.89,SSW,198,0.0,0.0,38,0.00,,,0.00,weatherlink.com 1.10,2013-08-23 19:42:00,
2013-08-23 14:57:00,93.1,63.0,29.88,SSW,212,0.0,0.0,37,0.00,,,0.00,weatherlink.com 1.10,2013-08-23 19:57:00,
2013-08-23 15:12:00,93.5,63.0,29.87,SW,232,0.0,0.0,36,0.00,,,0.00,weatherlink.com 1.10,2013-08-23 20:12:00,
2013-08-23 15:27:00,93.7,62.0,29.86,SSW,207,0.0,0.0,35,0.00,,,0.00,weatherlink.com 1.10,2013-08-23 20:27:00,
2013-08-23 15:42:00,94.0,64.0,29.85,NE,55,0.0,0.0,37,0.00,,,0.00,weatherlink.com 1.10,2013-08-23 20:42:00,
2013-08-23 15:57:00,94.6,63.0,29.85,SSW,208,0.0,0.0,35,0.00,,,0.00,weatherlink.com 1.10,2013-08-23 20:57:00,
2013-08-23 16:12:00,95.1,63.0,29.84,SSE,159,0.0,0.0,35,0.00,,,0.00,weatherlink.com 1.10,2013-08-23 21:12:00,
2013-08-23 16:27:00,95.6,64.0,29.84,SSW,195,0.0,0.0,35,0.00,,,0.00,weatherlink.com 1.10,2013-08-23 21:27:00,
2013-08-23 16:42:00,95.1,63.0,29.83,South,174,0.0,0.0,34,0.00,,,0.00,weatherlink.com 1.10,2013-08-23 21:42:00,
2013-08-23 16:58:00,95.5,64.0,29.83,NE,42,0.0,0.0,35,0.00,,,0.00,weatherlink.com 1.10,2013-08-23 21:58:00,
2013-08-23 17:13:00,94.6,65.0,29.83,SSE,159,0.0,0.0,37,0.00,,,0.00,weatherlink.com 1.10,2013-08-23 22:13:00,
2013-08-23 17:28:00,95.1,64.0,29.83,South,170,0.0,0.0,36,0.00,,,0.00,weatherlink.com 1.10,2013-08-23 22:28:00,
2013-08-23 17:43:00,93.1,64.0,29.83,SSE,152,0.0,0.0,38,0.00,,,0.00,weatherlink.com 1.10,2013-08-23 22:43:00,
2013-08-23 17:58:00,91.7,65.0,29.83,SSW,203,0.0,0.0,41,0.00,,,0.00,weatherlink.com 1.10,2013-08-23 22:58:00,
2013-08-23 18:13:00,92.9,64.0,29.82,SE,132,0.0,0.0,38,0.00,,,0.00,weatherlink.com 1.10,2013-08-23 23:13:00,
2013-08-23 18:28:00,93.4,64.0,29.82,South,191,0.0,0.0,38,0.00,,,0.00,weatherlink.com 1.10,2013-08-23 23:28:00,
2013-08-23 18:43:00,93.5,64.0,29.82,SSW,194,0.0,0.0,37,0.00,,,0.00,weatherlink.com 1.10,2013-08-23 23:43:00,
2013-08-23 18:58:00,93.3,63.0,29.83,SE,143,0.0,0.0,36,0.00,,,0.00,weatherlink.com 1.10,2013-08-23 23:58:00,
2013-08-23 19:13:00,91.2,63.0,29.83,NE,41,0.0,0.0,39,0.00,,,0.00,weatherlink.com 1.10,2013-08-24 00:13:00,
2013-08-23 19:28:00,89.8,62.0,29.84,SW,226,0.0,0.0,39,0.00,,,0.00,weatherlink.com 1.10,2013-08-24 00:28:00,
2013-08-23 19:43:00,88.6,62.0,29.84,ENE,75,0.0,0.0,41,0.00,,,0.00,weatherlink.com 1.10,2013-08-24 00:43:00,
2013-08-23 19:58:00,87.3,62.0,29.85,ENE,75,0.0,0.0,43,0.00,,,0.00,weatherlink.com 1.10,2013-08-24 00:58:00,
2013-08-23 20:13:00,85.6,62.0,29.85,ENE,74,0.0,0.0,45,0.00,,,0.00,weatherlink.com 1.10,2013-08-24 01:13:00,
2013-08-23 20:28:00,83.9,62.0,29.85,ENE,74,0.0,0.0,48,0.00,,,0.00,weatherlink.com 1.10,2013-08-24 01:28:00,
2013-08-23 20:43:00,81.6,62.0,29.86,ENE,73,0.0,0.0,52,0.00,,,0.00,weatherlink.com 1.10,2013-08-24 01:43:00,
2013-08-23 20:58:00,80.3,62.0,29.86,ENE,74,0.0,0.0,54,0.00,,,0.00,weatherlink.com 1.10,2013-08-24 01:58:00,
2013-08-23 21:13:00,79.5,62.0,29.86,ENE,74,0.0,0.0,56,0.00,,,0.00,weatherlink.com 1.10,2013-08-24 02:13:00,
2013-08-23 21:28:00,78.6,62.0,29.87,ENE,74,0.0,0.0,56,0.00,,,0.00,weatherlink.com 1.10,2013-08-24 02:28:00,
2013-08-23 21:43:00,78.0,61.0,29.88,ENE,73,0.0,0.0,57,0.00,,,0.00,weatherlink.com 1.10,2013-08-24 02:43:00,
2013-08-23 21:58:00,76.8,62.0,29.88,ENE,73,0.0,0.0,60,0.00,,,0.00,weatherlink.com 1.10,2013-08-24 02:58:00,
2013-08-23 22:13:00,75.9,62.0,29.89,ENE,73,0.0,0.0,62,0.00,,,0.00,weatherlink.com 1.10,2013-08-24 03:13:00,
2013-08-23 22:28:00,75.4,62.0,29.89,ENE,73,0.0,0.0,63,0.00,,,0.00,weatherlink.com 1.10,2013-08-24 03:28:00,
2013-08-23 22:43:00,74.7,62.0,29.89,ENE,68,0.0,0.0,64,0.00,,,0.00,weatherlink.com 1.10,2013-08-24 03:43:00,
2013-08-23 22:58:00,74.2,62.0,29.89,ENE,68,0.0,0.0,65,0.00,,,0.00,weatherlink.com 1.10,2013-08-24 03:58:00,
2013-08-23 23:13:00,73.8,61.0,29.89,ENE,68,0.0,0.0,65,0.00,,,0.00,weatherlink.com 1.10,2013-08-24 04:13:00,
2013-08-23 23:28:00,73.4,62.0,29.89,SSW,208,0.0,0.0,68,0.00,,,0.00,weatherlink.com 1.10,2013-08-24 04:28:00,
2013-08-23 23:43:00,76.3,63.0,29.90,SSW,204,0.0,0.0,64,0.00,,,0.00,weatherlink.com 1.10,2013-08-24 04:43:00,
2013-08-23 23:58:00,77.7,63.0,29.90,SSE,159,0.0,0.0,61,0.00,,,0.00,weatherlink.com 1.10,2013-08-24 04:58:00,